Time;durP1;ratioP1;P1;durP2;ratioP2;P2;SDS_P1;SDS_P2;PMS_P1;PMS_P2;Temp;Humidity;BMP_temperature;BMP_pressure;BME280_temperature;BME280_humidity;BME280_pressure;Samples;Min_cycle;Max_cycle;Signal;HPM_P1;HPM_P2
2021/11/10 00:01:54;;;;;;;1.47;1.10;;;;;;;5.47;100.00;101773.94;5073302;28;20178;-75
2021/11/10 00:04:21;;;;;;;1.00;0.90;;;;;;;5.26;100.00;101770.06;5072909;28;20220;-75
2021/11/10 00:07:01;;;;;;;1.77;1.10;;;;;;;5.27;100.00;101760.84;5072980;28;20186;-75
2021/11/10 00:09:26;;;;;;;1.30;0.93;;;;;;;5.19;100.00;101755.81;5073166;28;20170;-75
2021/11/10 00:11:54;;;;;;;1.90;0.80;;;;;;;5.04;100.00;101756.38;5072362;28;20233;-75
2021/11/10 00:14:19;;;;;;;1.50;0.90;;;;;;;5.05;100.00;101754.47;5070108;28;20680;-75
2021/11/10 00:16:45;;;;;;;1.00;0.90;;;;;;;5.02;100.00;101749.53;5072871;28;20265;-75
2021/11/10 00:19:10;;;;;;;7.53;1.07;;;;;;;4.87;100.00;101751.97;5072871;28;20266;-75
2021/11/10 00:21:36;;;;;;;0.97;0.90;;;;;;;4.75;100.00;101750.13;5072916;28;20175;-75
2021/11/10 00:24:01;;;;;;;1.53;1.20;;;;;;;4.90;100.00;101749.59;5072857;28;20171;-75
2021/11/10 00:26:27;;;;;;;1.50;1.13;;;;;;;4.75;100.00;101746.59;5073047;28;20210;-75
2021/11/10 00:28:53;;;;;;;2.53;1.60;;;;;;;4.78;100.00;101738.81;5073088;28;20202;-75
2021/11/10 00:31:19;;;;;;;2.17;1.77;;;;;;;4.73;100.00;101732.47;5072739;28;20178;-75
2021/11/10 00:33:45;;;;;;;6.37;1.87;;;;;;;4.77;100.00;101734.47;5072954;28;20641;-75
2021/11/10 00:36:12;;;;;;;3.93;2.70;;;;;;;4.58;100.00;101733.00;5072726;28;20257;-75
2021/11/10 00:38:37;;;;;;;3.10;2.90;;;;;;;4.73;100.00;101746.81;5072623;28;20634;-75
2021/11/10 00:41:04;;;;;;;3.60;1.83;;;;;;;4.78;100.00;101732.59;5072530;28;20213;-75
2021/11/10 00:43:29;;;;;;;5.07;2.20;;;;;;;4.71;100.00;101737.31;5072534;28;20224;-75
2021/11/10 00:45:55;;;;;;;2.07;1.87;;;;;;;4.60;100.00;101687.56;5071046;28;20570;-75
2021/11/10 00:48:20;;;;;;;2.30;1.70;;;;;;;4.76;100.00;101716.56;5072320;28;20307;-75
2021/11/10 00:50:46;;;;;;;2.07;1.63;;;;;;;4.80;100.00;101726.94;5072434;28;20267;-75
2021/11/10 00:53:12;;;;;;;1.73;1.60;;;;;;;4.79;100.00;101723.41;5072356;28;20177;-75
2021/11/10 00:55:38;;;;;;;2.97;1.70;;;;;;;4.87;100.00;101716.75;5072232;28;20556;-75
2021/11/10 00:58:04;;;;;;;1.60;1.50;;;;;;;4.93;100.00;101718.53;5072241;28;20166;-75
2021/11/10 01:00:30;;;;;;;3.77;1.13;;;;;;;4.88;100.00;101719.22;5072100;28;20213;-75
2021/11/10 01:02:55;;;;;;;1.97;1.70;;;;;;;4.90;100.00;101717.09;5072141;28;20177;-75
2021/11/10 01:05:20;;;;;;;1.93;1.50;;;;;;;4.90;100.00;101714.38;5071801;28;20179;-75
2021/11/10 01:07:46;;;;;;;1.40;1.30;;;;;;;4.96;100.00;101709.91;5071973;28;20547;-75
2021/11/10 01:10:13;;;;;;;1.40;1.30;;;;;;;4.92;100.00;101700.59;5072017;28;20179;-75
2021/11/10 01:12:38;;;;;;;1.73;1.43;;;;;;;4.95;100.00;101695.53;5071963;28;20179;-75
2021/11/10 01:15:06;;;;;;;1.50;1.40;;;;;;;5.00;100.00;101703.75;5071898;28;20530;-75
2021/11/10 01:17:32;;;;;;;1.43;1.30;;;;;;;4.93;100.00;101694.16;5071768;28;20170;-75
2021/11/10 01:19:57;;;;;;;1.53;1.40;;;;;;;4.81;100.00;101679.84;5071585;28;20264;-75
2021/11/10 01:22:23;;;;;;;2.37;1.40;;;;;;;4.90;100.00;101691.91;5071694;28;20220;-75
2021/11/10 01:24:48;;;;;;;3.13;1.50;;;;;;;4.81;100.00;101677.94;5071361;28;20240;-76
2021/11/10 01:27:14;;;;;;;3.17;1.70;;;;;;;4.78;100.00;101679.25;5070302;28;20626;-75
2021/11/10 01:29:40;;;;;;;1.50;1.37;;;;;;;4.80;100.00;101676.31;5071641;28;20567;-76
2021/11/10 01:32:06;;;;;;;2.30;1.30;;;;;;;4.77;100.00;101679.47;5071798;28;20205;-76
2021/11/10 01:34:32;;;;;;;4.07;2.20;;;;;;;4.69;100.00;101674.47;5071415;28;20639;-76
2021/11/10 01:36:57;;;;;;;1.70;1.50;;;;;;;4.74;100.00;101674.56;5071505;28;20178;-75
2021/11/10 01:39:22;;;;;;;2.40;1.50;;;;;;;4.85;100.00;101675.56;5071517;28;20178;-75
2021/11/10 01:41:51;;;;;;;1.70;1.40;;;;;;;4.78;100.00;101673.84;5071444;28;20170;-75
2021/11/10 01:44:24;;;;;;;4.30;1.77;;;;;;;4.89;100.00;101674.03;5070068;28;20540;-75
2021/11/10 01:46:52;;;;;;;1.60;1.23;;;;;;;4.70;100.00;101665.28;5071502;28;20323;-75
2021/11/10 01:49:17;;;;;;;2.30;1.40;;;;;;;4.75;100.00;101658.06;5071370;28;20174;-75
2021/11/10 01:51:49;;;;;;;3.10;1.30;;;;;;;4.56;100.00;101653.94;5070821;28;20232;-76
2021/11/10 01:54:17;;;;;;;1.50;1.27;;;;;;;4.63;100.00;101654.63;5070954;28;20548;-75
2021/11/10 01:56:42;;;;;;;1.43;1.30;;;;;;;4.59;100.00;101658.84;5071187;28;20198;-75
2021/11/10 01:59:09;;;;;;;1.40;1.10;;;;;;;4.57;100.00;101655.56;5070982;28;20597;-75
2021/11/10 02:01:45;;;;;;;1.47;1.03;;;;;;;4.51;100.00;101651.13;5070964;28;20514;-76
2021/11/10 02:04:11;;;;;;;1.83;1.07;;;;;;;4.48;100.00;101648.88;5070243;28;20535;-76
2021/11/10 02:06:37;;;;;;;1.57;0.87;;;;;;;4.42;100.00;101641.75;5071039;28;20192;-75
2021/11/10 02:09:05;;;;;;;1.17;1.03;;;;;;;4.38;100.00;101637.88;5071198;28;20618;-75
2021/11/10 02:11:31;;;;;;;6.87;1.83;;;;;;;4.29;100.00;101629.31;5069566;28;20705;-75
2021/11/10 02:13:56;;;;;;;1.30;1.07;;;;;;;4.21;100.00;101632.41;5070841;28;20255;-75
2021/11/10 02:16:22;;;;;;;1.40;1.30;;;;;;;3.98;100.00;101633.28;5070922;28;20175;-76
2021/11/10 02:18:47;;;;;;;1.33;1.20;;;;;;;3.80;100.00;101634.25;5070870;28;20585;-75
2021/11/10 02:21:14;;;;;;;1.63;1.10;;;;;;;3.71;100.00;101622.16;5070766;28;20194;-75
2021/11/10 02:23:40;;;;;;;2.00;1.30;;;;;;;3.64;100.00;101621.47;5070696;28;20163;-76
2021/11/10 02:26:06;;;;;;;2.17;1.20;;;;;;;3.68;100.00;101629.91;5070509;28;20186;-76
2021/11/10 02:28:35;;;;;;;1.70;1.17;;;;;;;3.64;100.00;101623.34;5070459;28;20524;-76
2021/11/10 02:31:00;;;;;;;3.47;1.70;;;;;;;3.73;100.00;101619.22;5070728;28;20174;-76
2021/11/10 02:33:28;;;;;;;2.33;1.63;;;;;;;3.79;100.00;101620.97;5065376;28;20183;-76
2021/11/10 02:36:01;;;;;;;1.37;1.20;;;;;;;3.67;100.00;101612.06;5062550;28;20179;-76
2021/11/10 02:38:27;;;;;;;1.60;1.50;;;;;;;3.67;100.00;101625.56;5070941;28;20187;-75
2021/11/10 02:40:55;;;;;;;1.90;1.40;;;;;;;3.55;100.00;101621.00;5070883;28;20205;-75
2021/11/10 02:43:21;;;;;;;1.93;1.40;;;;;;;3.39;100.00;101615.47;5071101;28;20587;-76
2021/11/10 02:45:48;;;;;;;1.80;1.70;;;;;;;3.22;100.00;101608.06;5070864;28;20201;-76
2021/11/10 02:48:14;;;;;;;1.40;1.00;;;;;;;3.29;100.00;101611.47;5071208;28;20171;-76
2021/11/10 02:50:39;;;;;;;3.00;2.47;;;;;;;3.19;100.00;101603.16;5070753;28;20171;-75
2021/11/10 02:53:05;;;;;;;2.77;2.07;;;;;;;3.17;100.00;101602.53;5070734;28;20178;-76
2021/11/10 02:55:31;;;;;;;1.43;1.33;;;;;;;3.03;100.00;101584.09;5070774;28;20191;-76
2021/11/10 02:57:57;;;;;;;1.77;1.67;;;;;;;2.88;100.00;101604.25;5070921;28;20646;-75
2021/11/10 03:00:24;;;;;;;2.77;2.33;;;;;;;2.92;100.00;101607.34;5070823;28;20255;-76
2021/11/10 03:02:51;;;;;;;3.43;2.73;;;;;;;2.90;100.00;101601.34;5070826;28;20186;-76
2021/11/10 03:05:17;;;;;;;5.20;4.03;;;;;;;2.91;100.00;101603.81;5070321;28;20541;-75
2021/11/10 03:07:42;;;;;;;2.80;1.87;;;;;;;2.90;100.00;101615.66;5070669;28;20186;-76
2021/11/10 03:10:08;;;;;;;2.20;1.70;;;;;;;2.84;100.00;101618.44;5070716;28;20601;-76
2021/11/10 03:12:35;;;;;;;1.77;1.33;;;;;;;2.87;100.00;101616.09;5070339;28;20249;-76
2021/11/10 03:15:01;;;;;;;2.47;1.70;;;;;;;2.85;100.00;101606.59;5069985;28;20173;-76
2021/11/10 03:17:27;;;;;;;0.97;0.77;;;;;;;2.77;100.00;101605.06;5069993;28;20657;-76
2021/11/10 03:19:53;;;;;;;1.10;1.07;;;;;;;2.69;100.00;101617.00;5070185;28;20194;-76
2021/11/10 03:22:18;;;;;;;1.57;1.27;;;;;;;2.64;100.00;101613.34;5070282;28;20534;-76
2021/11/10 03:24:45;;;;;;;1.37;1.03;;;;;;;2.55;100.00;101618.25;5070013;28;20581;-75
2021/11/10 03:27:11;;;;;;;0.93;0.90;;;;;;;2.57;100.00;101613.44;5070144;28;20229;-76
2021/11/10 03:29:37;;;;;;;1.63;1.27;;;;;;;2.67;100.00;101632.59;5070160;28;20175;-75
2021/11/10 03:32:04;;;;;;;1.37;1.17;;;;;;;2.76;100.00;101626.91;5068886;28;20174;-76
2021/11/10 03:34:29;;;;;;;1.70;1.40;;;;;;;2.76;100.00;101608.00;5069581;28;20182;-76
2021/11/10 03:36:54;;;;;;;1.50;1.03;;;;;;;2.69;100.00;101635.06;5070312;28;20167;-76
2021/11/10 03:39:20;;;;;;;1.23;1.00;;;;;;;2.52;100.00;101634.06;5069981;28;20178;-75
2021/11/10 03:41:45;;;;;;;0.77;0.77;;;;;;;2.34;100.00;101624.16;5069818;28;20170;-76
2021/11/10 03:44:11;;;;;;;1.23;1.10;;;;;;;2.15;100.00;101623.34;5069783;28;20261;-75
2021/11/10 03:46:37;;;;;;;2.67;1.63;;;;;;;2.20;100.00;101634.28;5070066;28;20169;-76
2021/11/10 03:49:03;;;;;;;1.50;1.40;;;;;;;2.23;100.00;101616.81;5074096;28;20170;-75
2021/11/10 03:51:29;;;;;;;1.03;0.97;;;;;;;2.29;100.00;101622.13;5073573;28;20656;-77
2021/11/10 03:53:55;;;;;;;0.87;0.87;;;;;;;2.41;100.00;101630.25;5073294;28;20512;-76
2021/11/10 03:56:20;;;;;;;0.77;0.77;;;;;;;2.41;100.00;101630.25;5073416;28;20215;-75
2021/11/10 03:58:46;;;;;;;2.03;1.73;;;;;;;2.35;100.00;101623.91;5073553;28;20262;-76
2021/11/10 04:01:13;;;;;;;1.10;0.73;;;;;;;2.28;100.00;101625.88;5073304;28;20194;-75
2021/11/10 04:03:39;;;;;;;2.47;1.40;;;;;;;2.19;100.00;101631.81;5072901;28;20167;-76
2021/11/10 04:06:05;;;;;;;3.00;1.00;;;;;;;2.17;100.00;101634.75;5072501;28;20175;-76
2021/11/10 04:08:31;;;;;;;1.07;1.07;;;;;;;2.11;100.00;101635.63;5073191;28;20691;-76
2021/11/10 04:10:59;;;;;;;0.93;0.93;;;;;;;2.06;100.00;101630.91;5073178;28;20178;-76
2021/11/10 04:13:25;;;;;;;1.40;1.20;;;;;;;2.04;100.00;101632.19;5073064;28;20670;-75
2021/11/10 04:15:50;;;;;;;0.90;0.90;;;;;;;2.08;100.00;101630.69;5072778;28;20174;-76
2021/11/10 04:18:15;;;;;;;2.07;1.20;;;;;;;2.02;100.00;101624.31;5072981;28;20185;-76
2021/11/10 04:20:41;;;;;;;3.47;1.40;;;;;;;2.05;100.00;101626.59;5072947;28;20324;-76
2021/11/10 04:23:06;;;;;;;2.20;1.30;;;;;;;2.13;100.00;101624.63;5072936;28;20241;-76
2021/11/10 04:25:32;;;;;;;1.23;1.10;;;;;;;2.16;100.00;101629.53;5071393;28;20826;-76
2021/11/10 04:27:57;;;;;;;1.67;1.50;;;;;;;2.18;100.00;101614.81;5072722;28;20265;-76
2021/11/10 04:30:22;;;;;;;3.27;1.80;;;;;;;2.17;100.00;101620.41;5072685;28;20250;-76
2021/11/10 04:32:48;;;;;;;1.33;1.10;;;;;;;2.27;100.00;101618.00;5072776;28;20523;-76
2021/11/10 04:35:14;;;;;;;0.97;0.97;;;;;;;2.36;100.00;101617.47;5072485;28;20205;-76
2021/11/10 04:37:41;;;;;;;1.17;0.93;;;;;;;2.39;100.00;101619.72;5072879;28;20194;-76
2021/11/10 04:40:08;;;;;;;1.57;1.33;;;;;;;2.42;100.00;101607.63;5072425;28;20662;-76
2021/11/10 04:42:34;;;;;;;1.57;1.10;;;;;;;2.43;100.00;101601.19;5072862;28;20178;-76
2021/11/10 04:45:08;;;;;;;1.20;1.10;;;;;;;2.35;100.00;101604.22;5072264;28;20245;-76
2021/11/10 04:47:35;;;;;;;3.80;1.37;;;;;;;2.15;100.00;101609.03;5072505;28;20162;-75
2021/11/10 04:50:02;;;;;;;1.70;1.20;;;;;;;2.03;100.00;101601.72;5072387;28;20424;-76
2021/11/10 04:52:28;;;;;;;3.93;1.70;;;;;;;1.97;100.00;101607.19;5072312;28;20179;-76
2021/11/10 04:54:53;;;;;;;1.50;1.00;;;;;;;2.05;100.00;101617.69;5072011;28;20171;-76
2021/11/10 04:57:19;;;;;;;0.93;0.93;;;;;;;2.12;100.00;101609.50;5072009;28;20175;-76
2021/11/10 04:59:44;;;;;;;0.80;0.80;;;;;;;2.17;100.00;101606.94;5071941;28;20206;-76
2021/11/10 05:04:37;;;;;;;1.97;1.00;;;;;;;2.24;100.00;101600.41;5071536;28;20173;-76
2021/11/10 05:07:03;;;;;;;1.10;0.93;;;;;;;2.15;100.00;101601.78;5071971;28;20182;-76
2021/11/10 05:09:29;;;;;;;2.47;1.00;;;;;;;2.16;100.00;101600.72;5072074;28;20179;-76
2021/11/10 05:11:55;;;;;;;1.07;0.97;;;;;;;2.14;100.00;101594.72;5072046;28;20507;-76
2021/11/10 05:14:20;;;;;;;1.17;0.93;;;;;;;2.09;100.00;101591.91;5071716;28;20174;-76
2021/11/10 05:16:47;;;;;;;1.10;1.00;;;;;;;2.01;100.00;101587.63;5071712;28;20305;-76
2021/11/10 05:19:12;;;;;;;1.40;1.30;;;;;;;1.92;100.00;101594.41;5072214;28;20182;-76
2021/11/10 05:21:38;;;;;;;1.27;1.17;;;;;;;1.91;100.00;101581.16;5073761;28;20611;-76
2021/11/10 05:24:03;;;;;;;1.33;1.23;;;;;;;1.99;100.00;101581.66;5071759;28;20253;-76
2021/11/10 05:26:30;;;;;;;1.50;1.40;;;;;;;1.96;100.00;101574.03;5071957;28;20171;-76
2021/11/10 05:28:56;;;;;;;1.23;1.13;;;;;;;1.86;100.00;101572.91;5071849;28;20171;-76
2021/11/10 05:31:21;;;;;;;0.90;0.90;;;;;;;1.86;100.00;101583.69;5072243;28;20185;-76
2021/11/10 05:33:47;;;;;;;0.67;0.67;;;;;;;1.92;100.00;101578.22;5071867;28;20170;-76
2021/11/10 05:36:13;;;;;;;1.90;1.80;;;;;;;1.90;100.00;101580.34;5071919;28;20277;-76
2021/11/10 05:38:39;;;;;;;0.80;0.80;;;;;;;1.91;100.00;101570.38;5071555;28;20253;-76
2021/11/10 05:41:04;;;;;;;1.33;1.20;;;;;;;1.98;100.00;101579.19;5071433;28;20256;-76
2021/11/10 05:43:30;;;;;;;0.83;0.77;;;;;;;1.99;100.00;101580.84;5071567;28;20178;-76
2021/11/10 05:45:56;;;;;;;0.97;0.90;;;;;;;1.99;100.00;101575.44;5071458;28;20247;-76
2021/11/10 05:48:21;;;;;;;2.93;0.93;;;;;;;1.91;100.00;101575.75;5071226;28;20248;-76
2021/11/10 05:50:46;;;;;;;2.00;1.40;;;;;;;1.84;100.00;101572.31;5071557;28;20177;-77
2021/11/10 05:53:13;;;;;;;0.70;0.70;;;;;;;1.84;100.00;101572.31;5071568;28;20174;-76
2021/11/10 05:55:40;;;;;;;1.57;1.47;;;;;;;1.85;100.00;101566.69;5071050;28;20224;-76
2021/11/10 05:58:06;;;;;;;2.23;1.20;;;;;;;1.90;100.00;101561.47;5071123;28;20166;-76
2021/11/10 06:00:31;;;;;;;1.07;0.97;;;;;;;1.93;100.00;101565.56;5071115;28;20205;-76
2021/11/10 06:02:57;;;;;;;0.73;0.73;;;;;;;1.92;100.00;101564.75;5071091;28;20175;-76
2021/11/10 06:05:23;;;;;;;2.00;1.80;;;;;;;1.98;100.00;101563.03;5070356;28;20177;-77
2021/11/10 06:07:49;;;;;;;2.13;1.57;;;;;;;2.06;100.00;101568.94;5070737;28;20661;-76
2021/11/10 06:10:16;;;;;;;8.57;1.10;;;;;;;2.17;100.00;101561.97;5070189;28;20666;-77
2021/11/10 06:12:43;;;;;;;0.90;0.90;;;;;;;2.22;100.00;101578.25;5071012;28;20228;-77
2021/11/10 06:15:08;;;;;;;1.43;1.10;;;;;;;2.10;100.00;101566.59;5070678;28;20227;-76
2021/11/10 06:17:34;;;;;;;2.00;1.83;;;;;;;1.95;100.00;101567.00;5070804;28;20273;-76
2021/11/10 06:20:02;;;;;;;1.33;1.23;;;;;;;1.92;100.00;101572.84;5071133;28;20249;-77
2021/11/10 06:22:27;;;;;;;2.73;1.43;;;;;;;1.98;100.00;101563.03;5070906;28;20196;-77
2021/11/10 06:24:52;;;;;;;1.23;1.13;;;;;;;2.05;100.00;101566.47;5070919;28;20171;-77
2021/11/10 06:27:18;;;;;;;1.60;1.33;;;;;;;1.99;100.00;101570.88;5070872;28;20178;-76
2021/11/10 06:29:43;;;;;;;0.93;0.93;;;;;;;1.82;100.00;101593.28;5070493;28;20225;-76
2021/11/10 06:32:09;;;;;;;0.60;0.60;;;;;;;1.73;100.00;101593.56;5070612;28;20649;-77
2021/11/10 06:34:34;;;;;;;0.77;0.77;;;;;;;1.78;100.00;101609.91;5070558;28;20695;-77
2021/11/10 06:36:59;;;;;;;1.47;0.97;;;;;;;1.87;100.00;101602.31;5070727;28;20697;-77
2021/11/10 06:39:25;;;;;;;1.43;1.27;;;;;;;1.95;100.00;101614.69;5069117;28;20179;-76
2021/11/10 06:41:50;;;;;;;1.13;1.00;;;;;;;2.00;100.00;101606.72;5071089;28;20568;-75
2021/11/10 06:44:16;;;;;;;1.00;0.90;;;;;;;2.04;100.00;101602.56;5070469;28;20634;-76
2021/11/10 06:46:41;;;;;;;0.87;0.83;;;;;;;2.04;100.00;101600.69;5066309;28;20174;-75
2021/11/10 06:49:07;;;;;;;1.47;1.30;;;;;;;1.98;100.00;101611.53;5070953;28;20227;-75
2021/11/10 06:51:32;;;;;;;1.00;0.90;;;;;;;2.11;100.00;101605.16;5070999;28;20182;-75
2021/11/10 06:53:58;;;;;;;1.17;1.07;;;;;;;1.98;100.00;101615.03;5070670;28;20202;-74
2021/11/10 06:56:23;;;;;;;3.97;1.03;;;;;;;1.93;100.00;101623.00;5070599;28;20178;-77
2021/11/10 06:58:49;;;;;;;2.63;0.70;;;;;;;1.89;100.00;101634.44;5070789;28;20175;-77
2021/11/10 07:01:15;;;;;;;3.13;1.13;;;;;;;1.88;100.00;101635.47;5070807;28;20202;-74
2021/11/10 07:03:40;;;;;;;1.20;0.90;;;;;;;1.97;100.00;101631.44;5070865;28;20175;-74
2021/11/10 07:06:06;;;;;;;2.20;2.10;;;;;;;1.98;100.00;101630.38;5070554;28;20162;-74
2021/11/10 07:08:31;;;;;;;1.40;1.30;;;;;;;1.95;100.00;101626.28;5070865;28;20166;-74
2021/11/10 07:10:56;;;;;;;1.27;1.13;;;;;;;2.06;100.00;101627.41;5070894;28;20266;-74
2021/11/10 07:13:22;;;;;;;1.20;1.07;;;;;;;2.06;100.00;101624.72;5070812;28;20195;-74
2021/11/10 07:15:48;;;;;;;1.50;1.40;;;;;;;2.07;100.00;101629.06;5070664;28;20167;-75
2021/11/10 07:18:14;;;;;;;1.70;1.60;;;;;;;2.10;100.00;101633.97;5070971;28;20182;-74
2021/11/10 07:20:39;;;;;;;1.63;1.53;;;;;;;2.27;100.00;101632.31;5070513;28;20206;-75
2021/11/10 07:23:05;;;;;;;1.53;1.30;;;;;;;2.22;100.00;101626.78;5074392;28;20170;-75
2021/11/10 07:25:30;;;;;;;1.63;1.53;;;;;;;2.26;100.00;101638.75;5074382;28;20852;-74
2021/11/10 07:27:56;;;;;;;4.63;2.47;;;;;;;2.31;100.00;101649.66;5074465;28;20257;-74
2021/11/10 07:30:21;;;;;;;2.17;1.97;;;;;;;2.37;100.00;101646.09;5074319;28;20533;-74
2021/11/10 07:32:47;;;;;;;4.27;2.57;;;;;;;2.23;100.00;101636.50;5074352;28;20170;-75
2021/11/10 07:35:13;;;;;;;4.17;2.23;;;;;;;2.37;100.00;101647.97;5074257;28;20177;-75
2021/11/10 07:37:40;;;;;;;2.63;2.43;;;;;;;2.44;100.00;101645.97;5074648;28;20615;-74
2021/11/10 07:40:07;;;;;;;2.90;2.53;;;;;;;2.62;100.00;101650.53;5074123;28;20198;-74
2021/11/10 07:42:33;;;;;;;2.97;2.77;;;;;;;2.78;100.00;101651.78;5074008;28;20669;-74
2021/11/10 07:45:49;;;;;;;3.77;2.77;;;;;;;2.89;100.00;101646.41;5073907;28;20167;-74
2021/11/10 07:47:52;;;;;;;5.60;2.73;;;;;;;3.06;100.00;101654.66;5065334;28;20199;-74
2021/11/10 07:50:20;;;;;;;2.93;2.73;;;;;;;3.16;100.00;101654.06;5074012;28;20194;-74
2021/11/10 07:52:47;;;;;;;3.10;2.77;;;;;;;3.20;100.00;101656.09;5074109;28;20584;-74
2021/11/10 07:55:13;;;;;;;4.57;2.53;;;;;;;3.23;100.00;101663.72;5073842;28;20174;-74
2021/11/10 07:57:39;;;;;;;2.90;2.10;;;;;;;3.22;100.00;101651.28;5073421;28;20594;-74
2021/11/10 08:00:13;;;;;;;2.00;1.90;;;;;;;3.19;100.00;101659.03;5073189;28;20194;-74
2021/11/10 08:02:40;;;;;;;2.73;2.53;;;;;;;3.02;100.00;101653.47;5071396;28;20178;-74
2021/11/10 08:05:06;;;;;;;4.03;2.40;;;;;;;3.10;100.00;101669.34;5072466;28;20214;-75
2021/11/10 08:07:32;;;;;;;1.57;1.47;;;;;;;3.21;100.00;101662.31;5072565;28;20190;-74
2021/11/10 08:09:57;;;;;;;2.63;2.23;;;;;;;3.21;100.00;101654.22;5072906;28;20174;-74
2021/11/10 08:12:23;;;;;;;14.30;2.87;;;;;;;3.05;100.00;101647.63;5072704;28;20171;-75
2021/11/10 08:14:49;;;;;;;3.83;3.00;;;;;;;2.93;100.00;101631.38;5072797;28;20210;-74
2021/11/10 08:17:14;;;;;;;4.03;3.73;;;;;;;2.93;100.00;101650.28;5073143;28;20228;-74
2021/11/10 08:19:39;;;;;;;3.70;3.40;;;;;;;3.14;100.00;101651.59;5073013;28;20198;-74
2021/11/10 08:22:05;;;;;;;4.87;4.23;;;;;;;3.35;100.00;101660.22;5073048;28;20174;-74
2021/11/10 08:24:32;;;;;;;4.40;4.00;;;;;;;3.44;100.00;101661.50;5072874;28;20241;-74
2021/11/10 08:26:58;;;;;;;5.33;3.27;;;;;;;3.58;100.00;101663.75;5073166;28;20253;-75
2021/11/10 08:29:23;;;;;;;2.83;2.63;;;;;;;3.70;100.00;101662.94;5073188;28;20305;-75
2021/11/10 08:31:50;;;;;;;2.90;2.53;;;;;;;3.76;100.00;101672.78;5072808;28;20626;-74
2021/11/10 08:34:15;;;;;;;5.30;3.33;;;;;;;3.75;100.00;101671.13;5072143;28;20182;-74
2021/11/10 08:36:41;;;;;;;3.50;3.00;;;;;;;3.77;100.00;101666.34;5072748;28;20166;-74
2021/11/10 08:39:06;;;;;;;5.07;4.50;;;;;;;3.68;100.00;101665.88;5072661;28;20258;-74
2021/11/10 08:41:32;;;;;;;5.93;4.97;;;;;;;3.65;100.00;101669.03;5072465;28;20210;-74
2021/11/10 08:43:58;;;;;;;5.30;4.80;;;;;;;3.67;100.00;101658.81;5070105;28;20258;-74
2021/11/10 08:46:24;;;;;;;6.60;4.70;;;;;;;3.85;100.00;101660.56;5073232;28;20207;-73
2021/11/10 08:48:50;;;;;;;6.07;4.47;;;;;;;3.91;100.00;101667.75;5072794;28;20174;-74
2021/11/10 08:51:15;;;;;;;6.73;5.70;;;;;;;4.04;100.00;101656.66;5072451;28;20194;-74
2021/11/10 08:53:41;;;;;;;7.57;6.77;;;;;;;3.87;100.00;101653.03;5072458;28;20198;-74
2021/11/10 08:56:07;;;;;;;6.17;5.47;;;;;;;3.75;100.00;101654.94;5072344;28;20259;-74
2021/11/10 08:58:33;;;;;;;5.37;4.87;;;;;;;3.93;100.00;101654.00;5072360;28;20171;-74
2021/11/10 09:00:59;;;;;;;4.43;3.33;;;;;;;3.80;100.00;101655.88;5072504;28;20287;-74
2021/11/10 09:03:26;;;;;;;5.57;4.70;;;;;;;3.79;100.00;101648.84;5072208;28;20651;-74
2021/11/10 09:05:52;;;;;;;3.57;3.27;;;;;;;3.85;100.00;101660.56;5071698;28;20181;-74
2021/11/10 09:08:23;;;;;;;4.07;3.67;;;;;;;3.79;100.00;101653.41;5071933;28;20190;-74
2021/11/10 09:10:49;;;;;;;3.60;3.27;;;;;;;3.97;100.00;101652.44;5071363;28;20179;-74
2021/11/10 09:13:14;;;;;;;4.77;3.73;;;;;;;4.04;100.00;101656.66;5068047;28;20560;-74
2021/11/10 09:15:40;;;;;;;5.27;4.43;;;;;;;4.22;100.00;101652.16;5071717;28;20210;-74
2021/11/10 09:18:07;;;;;;;5.87;4.57;;;;;;;4.26;100.00;101650.63;5072277;28;20178;-74
2021/11/10 09:20:36;;;;;;;5.53;5.03;;;;;;;4.17;100.00;101640.16;5071603;28;20237;-74
2021/11/10 09:23:04;;;;;;;7.20;5.53;;;;;;;4.21;100.00;101643.22;5071929;28;20182;-75
2021/11/10 09:25:30;;;;;;;18.67;14.93;;;;;;;4.33;100.00;101654.00;5071619;28;20219;-75
2021/11/10 09:27:59;;;;;;;5.77;5.27;;;;;;;4.43;100.00;101657.72;5071663;28;20249;-75
2021/11/10 09:30:27;;;;;;;7.23;5.10;;;;;;;4.54;100.00;101658.75;5071945;28;20232;-77
2021/11/10 09:32:53;;;;;;;3.30;2.93;;;;;;;4.65;100.00;101659.78;5071585;28;20170;-78
2021/11/10 09:35:21;;;;;;;6.13;3.57;;;;;;;4.74;100.00;101672.66;5071454;28;20170;-77
2021/11/10 09:37:49;;;;;;;4.60;3.90;;;;;;;4.83;100.00;101666.88;5071552;28;20186;-78
2021/11/10 09:40:18;;;;;;;4.53;4.13;;;;;;;4.89;100.00;101674.03;5070936;28;20582;-77
2021/11/10 09:42:44;;;;;;;7.37;4.80;;;;;;;4.98;100.00;101677.97;5069581;28;20174;-76
2021/11/10 09:45:14;;;;;;;6.93;4.80;;;;;;;5.04;100.00;101669.69;5070631;28;20170;-78
2021/11/10 09:47:42;;;;;;;5.63;5.07;;;;;;;5.08;100.00;101656.50;5070834;28;20174;-78
2021/11/10 09:50:09;;;;;;;6.07;4.40;;;;;;;5.14;100.00;101660.94;5070740;28;20235;-78
2021/11/10 09:52:35;;;;;;;5.50;5.00;;;;;;;5.23;100.00;101662.19;5070847;28;20228;-77
2021/11/10 09:55:01;;;;;;;5.47;4.97;;;;;;;5.46;100.00;101676.63;5070592;28;20166;-77
2021/11/10 09:57:26;;;;;;;5.07;4.13;;;;;;;5.54;100.00;101676.22;5070711;28;20231;-77
2021/11/10 09:59:53;;;;;;;5.40;4.27;;;;;;;5.62;100.00;101686.63;5070660;28;20286;-77
2021/11/10 10:02:19;;;;;;;8.87;4.47;;;;;;;5.81;100.00;101693.44;5070635;28;20185;-75
2021/11/10 10:04:46;;;;;;;5.53;5.00;;;;;;;5.79;100.00;101679.31;5070069;28;20182;-75
2021/11/10 10:07:12;;;;;;;6.20;5.57;;;;;;;5.78;100.00;101679.53;5070366;28;20190;-75
2021/11/10 10:09:38;;;;;;;5.50;4.30;;;;;;;6.00;100.00;101683.16;5070672;28;20220;-74
2021/11/10 10:12:05;;;;;;;6.47;5.20;;;;;;;6.05;100.00;101674.25;5070816;28;20539;-77
2021/11/10 10:14:32;;;;;;;5.43;4.93;;;;;;;6.00;100.00;101674.19;5070752;28;20558;-77
2021/11/10 10:17:00;;;;;;;4.93;4.43;;;;;;;6.16;100.00;101674.16;5070765;28;20255;-77
2021/11/10 10:19:40;;;;;;;4.43;3.70;;;;;;;6.09;100.00;101670.00;5070376;28;20174;-77
2021/11/10 10:22:06;;;;;;;4.57;4.17;;;;;;;6.26;100.00;101677.00;5069146;28;20178;-76
2021/11/10 10:24:49;;;;;;;6.23;4.30;;;;;;;6.34;100.00;101677.63;5070294;28;20522;-76
2021/11/10 10:27:33;;;;;;;4.50;4.10;;;;;;;6.10;100.00;101674.34;5070259;28;20171;-76
2021/11/10 10:30:32;;;;;;;4.43;4.03;;;;;;;6.07;100.00;101661.25;5070417;28;20170;-76
2021/11/10 10:33:05;;;;;;;7.10;5.17;;;;;;;6.05;100.00;101660.69;5070380;28;20193;-77
2021/11/10 10:35:33;;;;;;;4.30;3.93;;;;;;;6.17;100.00;101658.69;5069986;28;20162;-76
2021/11/10 10:38:00;;;;;;;4.40;3.87;;;;;;;6.23;100.00;101669.38;5070255;28;20170;-76
2021/11/10 10:40:27;;;;;;;5.13;4.63;;;;;;;6.30;100.00;101665.63;5070246;28;20605;-76
2021/11/10 10:42:54;;;;;;;5.47;4.83;;;;;;;6.47;100.00;101666.38;5070295;28;20170;-76
2021/11/10 10:45:58;;;;;;;6.00;4.77;;;;;;;6.63;100.00;101664.66;5069932;28;20198;-76
2021/11/10 10:48:27;;;;;;;4.73;4.23;;;;;;;6.72;100.00;101666.66;5067895;28;20194;-76
2021/11/10 10:50:59;;;;;;;5.90;4.37;;;;;;;6.75;100.00;101678.91;5068971;28;20184;-76
2021/11/10 10:53:48;;;;;;;6.77;4.33;;;;;;;6.79;100.00;101661.84;5068804;28;20240;-76
2021/11/10 10:56:29;;;;;;;4.30;3.90;;;;;;;6.89;100.00;101655.69;5071673;28;20171;-76
2021/11/10 10:59:05;;;;;;;4.80;4.40;;;;;;;7.02;100.00;101651.75;5074181;28;20538;-76
2021/11/10 11:01:34;;;;;;;4.10;3.80;;;;;;;7.10;100.00;101651.28;5074027;28;20317;-76
2021/11/10 11:04:05;;;;;;;3.87;3.47;;;;;;;7.26;100.00;101647.63;5073807;28;20166;-76
2021/11/10 11:06:35;;;;;;;4.87;3.43;;;;;;;7.36;100.00;101641.41;5073610;28;20182;-76
2021/11/10 11:09:11;;;;;;;7.17;3.47;;;;;;;7.52;100.00;101635.00;5074077;28;20166;-76
2021/11/10 11:11:38;;;;;;;3.23;2.93;;;;;;;7.67;99.14;101635.13;5074407;28;20253;-76
2021/11/10 11:14:13;;;;;;;5.13;3.70;;;;;;;7.78;98.37;101640.63;5073730;28;20169;-76
2021/11/10 11:16:41;;;;;;;3.80;3.43;;;;;;;7.89;99.41;101647.78;5073685;28;20197;-75
2021/11/10 11:19:17;;;;;;;2.87;2.57;;;;;;;7.89;97.93;101636.88;5073688;28;20711;-76
2021/11/10 11:21:51;;;;;;;2.50;2.30;;;;;;;8.14;98.43;101633.47;5073652;28;20720;-76
2021/11/10 11:24:45;;;;;;;2.60;2.30;;;;;;;8.39;95.23;101643.66;5069371;28;20236;-75
2021/11/10 11:27:14;;;;;;;1.93;1.83;;;;;;;8.69;85.76;101651.13;5056477;28;20193;-75